sensor_id;sensor_type;location;lat;lon;timestamp;pressure;altitude;pressure_sealevel;temperature;humidity
52361;BME280;38294;42.966;1.608;2022-12-18T03:39:05;97826.03;;;3.23;99.02
52361;BME280;38294;42.966;1.608;2022-12-18T03:41:42;97822.47;;;3.55;93.64
52361;BME280;38294;42.966;1.608;2022-12-18T03:44:36;97812.75;;;3.67;90.32
52361;BME280;38294;42.966;1.608;2022-12-18T03:47:12;97819.75;;;3.68;88.78
52361;BME280;38294;42.966;1.608;2022-12-18T03:49:56;97822.59;;;3.63;88.33
52361;BME280;38294;42.966;1.608;2022-12-18T03:55:10;97814.47;;;3.77;87.24
52361;BME280;38294;42.966;1.608;2022-12-18T03:57:37;97807.44;;;3.76;85.93
52361;BME280;38294;42.966;1.608;2022-12-18T04:00:10;97801.22;;;4.03;85.03
52361;BME280;38294;42.966;1.608;2022-12-18T04:02:39;97791.97;;;4.04;84.90
52361;BME280;38294;42.966;1.608;2022-12-18T04:05:07;97804.00;;;4.11;83.22
52361;BME280;38294;42.966;1.608;2022-12-18T04:07:35;97796.59;;;4.03;83.09
52361;BME280;38294;42.966;1.608;2022-12-18T04:10:02;97790.34;;;4.16;82.15
52361;BME280;38294;42.966;1.608;2022-12-18T04:12:29;97793.84;;;4.17;82.38
52361;BME280;38294;42.966;1.608;2022-12-18T04:14:55;97783.72;;;4.22;81.89
52361;BME280;38294;42.966;1.608;2022-12-18T04:17:21;97785.53;;;4.13;82.07
52361;BME280;38294;42.966;1.608;2022-12-18T04:19:47;97782.25;;;4.03;81.53
52361;BME280;38294;42.966;1.608;2022-12-18T04:22:13;97778.53;;;3.99;81.34
52361;BME280;38294;42.966;1.608;2022-12-18T04:24:39;97777.63;;;4.03;80.68
52361;BME280;38294;42.966;1.608;2022-12-18T04:27:04;97773.56;;;4.14;79.30
52361;BME280;38294;42.966;1.608;2022-12-18T04:29:30;97777.16;;;4.23;79.42
52361;BME280;38294;42.966;1.608;2022-12-18T04:31:55;97774.22;;;4.34;78.70
52361;BME280;38294;42.966;1.608;2022-12-18T04:34:21;97778.56;;;4.35;78.62
52361;BME280;38294;42.966;1.608;2022-12-18T04:36:47;97767.03;;;4.29;78.70
52361;BME280;38294;42.966;1.608;2022-12-18T04:39:13;97760.78;;;4.29;78.87
52361;BME280;38294;42.966;1.608;2022-12-18T04:41:39;97756.81;;;4.12;79.17
52361;BME280;38294;42.966;1.608;2022-12-18T04:44:04;97748.81;;;3.94;80.41
52361;BME280;38294;42.966;1.608;2022-12-18T04:46:30;97745.91;;;3.90;80.73
52361;BME280;38294;42.966;1.608;2022-12-18T04:48:56;97741.59;;;3.89;80.53
52361;BME280;38294;42.966;1.608;2022-12-18T04:51:21;97734.16;;;3.95;80.01
52361;BME280;38294;42.966;1.608;2022-12-18T04:53:47;97732.63;;;4.02;78.95
52361;BME280;38294;42.966;1.608;2022-12-18T04:56:14;97746.72;;;4.27;79.19
52361;BME280;38294;42.966;1.608;2022-12-18T04:58:41;97745.78;;;4.09;79.37
52361;BME280;38294;42.966;1.608;2022-12-18T05:01:07;97745.31;;;3.93;79.06
52361;BME280;38294;42.966;1.608;2022-12-18T05:03:34;97748.94;;;4.24;78.56
52361;BME280;38294;42.966;1.608;2022-12-18T05:06:00;97751.06;;;4.14;78.25
52361;BME280;38294;42.966;1.608;2022-12-18T05:08:26;97762.66;;;4.06;78.83
52361;BME280;38294;42.966;1.608;2022-12-18T05:11:02;97762.91;;;4.32;78.46
52361;BME280;38294;42.966;1.608;2022-12-18T05:13:29;97770.25;;;4.17;77.69
52361;BME280;38294;42.966;1.608;2022-12-18T05:15:55;97765.16;;;4.16;77.25
52361;BME280;38294;42.966;1.608;2022-12-18T05:18:22;97769.00;;;4.37;76.72
52361;BME280;38294;42.966;1.608;2022-12-18T05:20:52;97775.22;;;4.38;76.77
52361;BME280;38294;42.966;1.608;2022-12-18T05:23:18;97778.69;;;4.30;77.91
52361;BME280;38294;42.966;1.608;2022-12-18T05:25:57;97787.09;;;4.42;77.39
52361;BME280;38294;42.966;1.608;2022-12-18T05:28:24;97785.84;;;4.48;77.98
52361;BME280;38294;42.966;1.608;2022-12-18T05:30:55;97784.22;;;4.60;77.30
52361;BME280;38294;42.966;1.608;2022-12-18T05:33:22;97786.09;;;4.38;78.41
52361;BME280;38294;42.966;1.608;2022-12-18T05:35:57;97787.09;;;4.42;78.35
52361;BME280;38294;42.966;1.608;2022-12-18T05:38:25;97791.03;;;4.22;78.94
52361;BME280;38294;42.966;1.608;2022-12-18T05:40:52;97804.09;;;4.20;78.78
52361;BME280;38294;42.966;1.608;2022-12-18T05:43:19;97804.59;;;4.08;79.89
52361;BME280;38294;42.966;1.608;2022-12-18T05:45:45;97815.78;;;4.07;79.46
52361;BME280;38294;42.966;1.608;2022-12-18T05:48:10;97823.38;;;4.18;79.28
52361;BME280;38294;42.966;1.608;2022-12-18T05:50:37;97827.00;;;3.87;82.50
52361;BME280;38294;42.966;1.608;2022-12-18T05:53:04;97829.50;;;3.69;83.11
52361;BME280;38294;42.966;1.608;2022-12-18T05:55:36;97822.38;;;4.14;82.08
52361;BME280;38294;42.966;1.608;2022-12-18T05:58:03;97829.13;;;4.03;81.54
52361;BME280;38294;42.966;1.608;2022-12-18T06:00:29;97838.06;;;4.04;81.19
52361;BME280;38294;42.966;1.608;2022-12-18T06:02:55;97835.44;;;3.72;81.59
52361;BME280;38294;42.966;1.608;2022-12-18T06:05:21;97840.16;;;3.80;81.86
52361;BME280;38294;42.966;1.608;2022-12-18T06:07:46;97844.94;;;3.69;81.78
52361;BME280;38294;42.966;1.608;2022-12-18T06:10:12;97841.66;;;3.86;80.84
52361;BME280;38294;42.966;1.608;2022-12-18T06:12:37;97849.88;;;3.94;nan
52361;BME280;38294;42.966;1.608;2022-12-18T06:15:04;97846.69;;;4.06;80.08
52361;BME280;38294;42.966;1.608;2022-12-18T06:17:30;97849.69;;;4.04;80.11
52361;BME280;38294;42.966;1.608;2022-12-18T06:19:56;97834.50;;;4.17;79.06
52361;BME280;38294;42.966;1.608;2022-12-18T06:22:22;97836.81;;;4.23;78.39
52361;BME280;38294;42.966;1.608;2022-12-18T06:24:47;97842.66;;;4.17;77.84
52361;BME280;38294;42.966;1.608;2022-12-18T06:27:13;97840.94;;;4.21;77.77
52361;BME280;38294;42.966;1.608;2022-12-18T06:29:39;97840.66;;;4.22;77.81
52361;BME280;38294;42.966;1.608;2022-12-18T06:32:04;97836.03;;;4.23;77.89
52361;BME280;38294;42.966;1.608;2022-12-18T06:34:31;97847.38;;;3.98;78.45
52361;BME280;38294;42.966;1.608;2022-12-18T06:36:57;97847.41;;;3.84;78.15
52361;BME280;38294;42.966;1.608;2022-12-18T06:39:23;97849.88;;;3.67;78.48
52361;BME280;38294;42.966;1.608;2022-12-18T06:41:48;97845.88;;;3.64;78.81
52361;BME280;38294;42.966;1.608;2022-12-18T06:44:14;97840.06;;;3.71;79.02
52361;BME280;38294;42.966;1.608;2022-12-18T06:46:40;97833.72;;;3.89;78.35
52361;BME280;38294;42.966;1.608;2022-12-18T06:49:05;97833.94;;;3.79;78.56
52361;BME280;38294;42.966;1.608;2022-12-18T06:51:31;97835.34;;;3.77;78.06
52361;BME280;38294;42.966;1.608;2022-12-18T06:53:56;97832.13;;;3.61;78.94
52361;BME280;38294;42.966;1.608;2022-12-18T06:56:22;97838.16;;;3.72;78.20
52361;BME280;38294;42.966;1.608;2022-12-18T06:58:50;97829.00;;;3.54;78.44
52361;BME280;38294;42.966;1.608;2022-12-18T07:01:16;97833.72;;;3.48;78.86
52361;BME280;38294;42.966;1.608;2022-12-18T07:03:42;97830.81;;;3.58;79.14
52361;BME280;38294;42.966;1.608;2022-12-18T07:06:18;97823.59;;;3.81;78.62
52361;BME280;38294;42.966;1.608;2022-12-18T07:08:45;97823.38;;;3.50;79.32
52361;BME280;38294;42.966;1.608;2022-12-18T07:11:11;97829.16;;;3.44;78.94
52361;BME280;38294;42.966;1.608;2022-12-18T07:13:37;97834.91;;;3.56;79.46
52361;BME280;38294;42.966;1.608;2022-12-18T07:18:32;97834.44;;;3.67;78.28
52361;BME280;38294;42.966;1.608;2022-12-18T07:20:58;97831.00;;;3.62;78.74
52361;BME280;38294;42.966;1.608;2022-12-18T07:23:27;97819.16;;;3.58;79.15
52361;BME280;38294;42.966;1.608;2022-12-18T07:25:53;97825.69;;;3.70;78.83
52361;BME280;38294;42.966;1.608;2022-12-18T07:28:18;97826.59;;;3.66;78.98
52361;BME280;38294;42.966;1.608;2022-12-18T07:30:44;97817.75;;;3.60;78.14
52361;BME280;38294;42.966;1.608;2022-12-18T07:33:09;97817.19;;;3.77;77.70
52361;BME280;38294;42.966;1.608;2022-12-18T07:35:35;97823.09;;;3.79;78.83
52361;BME280;38294;42.966;1.608;2022-12-18T07:38:00;97817.19;;;3.77;78.56
52361;BME280;38294;42.966;1.608;2022-12-18T07:40:26;97825.78;;;3.79;77.16
52361;BME280;38294;42.966;1.608;2022-12-18T07:42:51;97824.47;;;3.63;78.58
52361;BME280;38294;42.966;1.608;2022-12-18T07:45:17;97819.09;;;3.90;77.92
52361;BME280;38294;42.966;1.608;2022-12-18T07:47:42;97819.66;;;4.01;77.21
52361;BME280;38294;42.966;1.608;2022-12-18T07:50:08;97820.47;;;4.15;76.74
52361;BME280;38294;42.966;1.608;2022-12-18T07:52:34;97828.19;;;4.21;75.95
52361;BME280;38294;42.966;1.608;2022-12-18T07:54:59;97826.16;;;4.27;75.42
52361;BME280;38294;42.966;1.608;2022-12-18T07:57:25;97826.88;;;4.33;75.96
52361;BME280;38294;42.966;1.608;2022-12-18T07:59:51;97834.34;;;4.49;74.88
52361;BME280;38294;42.966;1.608;2022-12-18T08:02:16;97822.06;;;4.30;75.09
52361;BME280;38294;42.966;1.608;2022-12-18T08:04:42;97821.91;;;4.62;74.27
52361;BME280;38294;42.966;1.608;2022-12-18T08:07:07;97819.25;;;4.35;74.21
52361;BME280;38294;42.966;1.608;2022-12-18T08:09:33;97822.03;;;4.43;74.83
52361;BME280;38294;42.966;1.608;2022-12-18T08:11:58;97821.69;;;4.58;74.97
52361;BME280;38294;42.966;1.608;2022-12-18T08:14:24;97809.44;;;4.83;74.13
52361;BME280;38294;42.966;1.608;2022-12-18T08:16:50;97812.16;;;5.05;73.16
52361;BME280;38294;42.966;1.608;2022-12-18T08:19:15;97814.25;;;5.08;72.84
52361;BME280;38294;42.966;1.608;2022-12-18T08:21:41;97819.19;;;4.84;72.76
52361;BME280;38294;42.966;1.608;2022-12-18T08:24:06;97810.56;;;5.04;72.56
52361;BME280;38294;42.966;1.608;2022-12-18T08:26:32;97815.84;;;5.32;71.43
52361;BME280;38294;42.966;1.608;2022-12-18T08:28:59;97824.94;;;5.58;70.53
52361;BME280;38294;42.966;1.608;2022-12-18T08:31:26;97819.28;;;5.85;69.52
52361;BME280;38294;42.966;1.608;2022-12-18T08:33:53;97819.22;;;5.99;69.31
52361;BME280;38294;42.966;1.608;2022-12-18T08:36:19;97814.91;;;5.67;69.79
52361;BME280;38294;42.966;1.608;2022-12-18T08:38:45;97826.63;;;6.07;69.18
52361;BME280;38294;42.966;1.608;2022-12-18T08:41:13;97830.28;;;6.02;69.00
52361;BME280;38294;42.966;1.608;2022-12-18T08:43:39;97813.72;;;6.38;68.10
52361;BME280;38294;42.966;1.608;2022-12-18T08:46:25;97810.38;;;6.50;67.64
52361;BME280;38294;42.966;1.608;2022-12-18T08:48:51;97819.03;;;6.52;67.21
52361;BME280;38294;42.966;1.608;2022-12-18T08:51:18;97824.81;;;6.67;66.53
52361;BME280;38294;42.966;1.608;2022-12-18T08:53:44;97828.19;;;6.81;66.41
52361;BME280;38294;42.966;1.608;2022-12-18T08:56:10;97832.84;;;7.07;65.26
52361;BME280;38294;42.966;1.608;2022-12-18T08:58:35;97834.09;;;7.26;64.95
52361;BME280;38294;42.966;1.608;2022-12-18T09:01:02;97821.81;;;7.67;64.26
52361;BME280;38294;42.966;1.608;2022-12-18T09:03:28;97827.63;;;7.57;64.16
52361;BME280;38294;42.966;1.608;2022-12-18T09:05:54;97820.59;;;7.56;64.35
52361;BME280;38294;42.966;1.608;2022-12-18T09:08:19;97820.59;;;7.56;64.11
52361;BME280;38294;42.966;1.608;2022-12-18T09:10:46;97810.00;;;7.92;63.86
52361;BME280;38294;42.966;1.608;2022-12-18T09:13:12;97803.75;;;8.21;63.09
52361;BME280;38294;42.966;1.608;2022-12-18T09:15:44;97795.72;;;8.33;62.75
52361;BME280;38294;42.966;1.608;2022-12-18T09:18:14;97790.06;;;8.38;62.01
52361;BME280;38294;42.966;1.608;2022-12-18T09:20:41;97790.00;;;8.47;61.80
52361;BME280;38294;42.966;1.608;2022-12-18T09:23:07;97787.09;;;8.72;60.87
52361;BME280;38294;42.966;1.608;2022-12-18T09:25:33;97794.16;;;8.94;59.99
52361;BME280;38294;42.966;1.608;2022-12-18T09:28:02;97796.13;;;9.06;59.09
52361;BME280;38294;42.966;1.608;2022-12-18T09:30:28;97806.81;;;8.78;58.69
52361;BME280;38294;42.966;1.608;2022-12-18T09:32:54;97806.25;;;9.05;58.48
52361;BME280;38294;42.966;1.608;2022-12-18T09:35:19;97803.03;;;9.24;57.34
52361;BME280;38294;42.966;1.608;2022-12-18T09:37:45;97807.84;;;9.27;57.72
52361;BME280;38294;42.966;1.608;2022-12-18T09:40:20;97807.28;;;9.90;56.49
52361;BME280;38294;42.966;1.608;2022-12-18T09:42:54;97804.19;;;9.80;56.75
52361;BME280;38294;42.966;1.608;2022-12-18T09:45:21;97806.16;;;10.03;56.51
52361;BME280;38294;42.966;1.608;2022-12-18T09:47:48;97808.91;;;10.03;55.64
52361;BME280;38294;42.966;1.608;2022-12-18T09:50:32;97808.03;;;9.55;57.23
52361;BME280;38294;42.966;1.608;2022-12-18T09:53:04;97816.13;;;8.98;58.04
52361;BME280;38294;42.966;1.608;2022-12-18T09:55:37;97823.47;;;9.38;56.99
52361;BME280;38294;42.966;1.608;2022-12-18T09:58:35;97810.25;;;9.08;57.63
52361;BME280;38294;42.966;1.608;2022-12-18T10:01:17;97805.13;;;10.08;55.92
52361;BME280;38294;42.966;1.608;2022-12-18T10:03:43;97798.66;;;10.25;54.97
52361;BME280;38294;42.966;1.608;2022-12-18T10:06:18;97798.28;;;10.63;54.74
52361;BME280;38294;42.966;1.608;2022-12-18T10:24:56;97781.72;;;11.54;51.52
52361;BME280;38294;42.966;1.608;2022-12-18T10:27:26;97782.19;;;11.01;52.12
52361;BME280;38294;42.966;1.608;2022-12-18T10:29:53;97768.13;;;11.02;52.26
52361;BME280;38294;42.966;1.608;2022-12-18T10:32:24;97768.50;;;11.44;51.89
52361;BME280;38294;42.966;1.608;2022-12-18T10:34:51;97765.56;;;11.81;51.79
52361;BME280;38294;42.966;1.608;2022-12-18T10:37:20;97766.56;;;11.88;52.58
52361;BME280;38294;42.966;1.608;2022-12-18T10:40:06;97756.16;;;12.13;52.13
52361;BME280;38294;42.966;1.608;2022-12-18T10:42:32;97761.47;;;12.06;51.73
52361;BME280;38294;42.966;1.608;2022-12-18T10:45:05;97751.59;;;12.36;51.26
52361;BME280;38294;42.966;1.608;2022-12-18T10:47:34;97752.88;;;12.23;51.39
52361;BME280;38294;42.966;1.608;2022-12-18T10:49:59;97758.25;;;12.35;51.11
52361;BME280;38294;42.966;1.608;2022-12-18T10:52:27;97747.13;;;11.50;53.75
52361;BME280;38294;42.966;1.608;2022-12-18T10:54:55;97730.09;;;12.23;52.38
52361;BME280;38294;42.966;1.608;2022-12-18T10:59:56;97728.97;;;12.78;50.26
52361;BME280;38294;42.966;1.608;2022-12-18T11:02:34;97733.72;;;13.00;49.59
52361;BME280;38294;42.966;1.608;2022-12-18T11:05:00;97731.34;;;12.60;49.64
52361;BME280;38294;42.966;1.608;2022-12-18T11:07:46;97714.41;;;12.77;49.68
52361;BME280;38294;42.966;1.608;2022-12-18T11:10:17;97709.53;;;12.32;51.58
52361;BME280;38294;42.966;1.608;2022-12-18T11:12:43;97719.41;;;12.18;50.68
52361;BME280;38294;42.966;1.608;2022-12-18T11:15:18;97723.09;;;10.88;54.68
52361;BME280;38294;42.966;1.608;2022-12-18T11:17:48;97717.56;;;11.43;54.65
52361;BME280;38294;42.966;1.608;2022-12-18T11:20:29;97716.03;;;12.24;52.44
52361;BME280;38294;42.966;1.608;2022-12-18T11:23:04;97720.88;;;12.15;52.51
52361;BME280;38294;42.966;1.608;2022-12-18T11:25:32;97719.19;;;12.26;51.91
52361;BME280;38294;42.966;1.608;2022-12-18T11:28:04;97733.69;;;11.92;53.20
52361;BME280;38294;42.966;1.608;2022-12-18T11:30:33;97726.97;;;12.05;53.33
52361;BME280;38294;42.966;1.608;2022-12-18T11:33:10;97728.31;;;12.30;53.24
52361;BME280;38294;42.966;1.608;2022-12-18T11:38:27;97724.53;;;12.19;53.43
52361;BME280;38294;42.966;1.608;2022-12-18T11:43:50;97708.00;;;12.70;51.59
52361;BME280;38294;42.966;1.608;2022-12-18T11:46:39;97697.50;;;12.75;50.34
52361;BME280;38294;42.966;1.608;2022-12-18T11:49:17;97688.28;;;13.06;49.85
52361;BME280;38294;42.966;1.608;2022-12-18T11:54:19;97695.53;;;13.56;48.43
52361;BME280;38294;42.966;1.608;2022-12-18T12:02:29;97679.47;;;13.84;47.87
52361;BME280;38294;42.966;1.608;2022-12-18T12:18:38;97678.78;;;13.91;49.80
52361;BME280;38294;42.966;1.608;2022-12-18T12:21:35;97666.94;;;14.39;49.07
52361;BME280;38294;42.966;1.608;2022-12-18T12:32:49;97642.31;;;14.53;48.46
52361;BME280;38294;42.966;1.608;2022-12-18T12:35:44;97644.28;;;14.86;48.41
52361;BME280;38294;42.966;1.608;2022-12-18T12:41:08;97638.31;;;14.47;50.33
52361;BME280;38294;42.966;1.608;2022-12-18T12:43:58;97646.88;;;14.72;50.35
52361;BME280;38294;42.966;1.608;2022-12-18T12:46:26;97642.63;;;14.48;51.09
52361;BME280;38294;42.966;1.608;2022-12-18T12:48:52;97650.16;;;14.25;51.49
52361;BME280;38294;42.966;1.608;2022-12-18T12:51:37;97656.81;;;14.80;51.34
52361;BME280;38294;42.966;1.608;2022-12-18T12:54:10;97645.13;;;14.31;53.33
52361;BME280;38294;42.966;1.608;2022-12-18T13:07:34;97653.03;;;14.06;63.49
52361;BME280;38294;42.966;1.608;2022-12-18T13:10:24;97664.16;;;14.39;63.32
52361;BME280;38294;42.966;1.608;2022-12-18T13:13:01;97660.63;;;14.39;63.32
52361;BME280;38294;42.966;1.608;2022-12-18T13:15:40;97664.16;;;14.13;63.61
52361;BME280;38294;42.966;1.608;2022-12-18T13:20:35;97667.03;;;14.20;64.07
52361;BME280;38294;42.966;1.608;2022-12-18T13:23:19;97669.22;;;14.34;63.68
52361;BME280;38294;42.966;1.608;2022-12-18T13:26:00;97663.97;;;14.55;63.31
52361;BME280;38294;42.966;1.608;2022-12-18T13:31:57;97659.31;;;14.59;63.20
52361;BME280;38294;42.966;1.608;2022-12-18T13:34:25;97658.75;;;14.76;62.09
52361;BME280;38294;42.966;1.608;2022-12-18T13:36:53;97662.56;;;14.38;63.03
52361;BME280;38294;42.966;1.608;2022-12-18T13:41:48;97662.66;;;14.45;63.04
52361;BME280;38294;42.966;1.608;2022-12-18T13:46:50;97659.50;;;14.17;63.87
52361;BME280;38294;42.966;1.608;2022-12-18T13:49:23;97643.91;;;14.28;63.91
52361;BME280;38294;42.966;1.608;2022-12-18T13:51:54;97648.28;;;14.03;65.11
52361;BME280;38294;42.966;1.608;2022-12-18T13:54:36;97646.44;;;14.37;63.54
52361;BME280;38294;42.966;1.608;2022-12-18T13:57:03;97635.81;;;14.39;63.58
52361;BME280;38294;42.966;1.608;2022-12-18T13:59:39;97632.63;;;14.66;62.72
52361;BME280;38294;42.966;1.608;2022-12-18T14:02:17;97632.78;;;14.81;62.00
52361;BME280;38294;42.966;1.608;2022-12-18T14:04:47;97634.69;;;14.77;62.56
52361;BME280;38294;42.966;1.608;2022-12-18T14:07:19;97629.91;;;15.07;61.20
52361;BME280;38294;42.966;1.608;2022-12-18T14:09:57;97632.50;;;14.93;60.94
52361;BME280;38294;42.966;1.608;2022-12-18T14:12:30;97641.19;;;14.91;61.08
52361;BME280;38294;42.966;1.608;2022-12-18T14:17:55;97632.50;;;14.56;61.62
52361;BME280;38294;42.966;1.608;2022-12-18T14:20:31;97643.41;;;14.79;61.78
52361;BME280;38294;42.966;1.608;2022-12-18T14:22:57;97645.28;;;14.38;62.69
52361;BME280;38294;42.966;1.608;2022-12-18T14:25:26;97651.84;;;14.59;62.79
52361;BME280;38294;42.966;1.608;2022-12-18T14:30:44;97640.31;;;14.24;62.67
52361;BME280;38294;42.966;1.608;2022-12-18T14:33:15;97642.00;;;14.32;63.50
52361;BME280;38294;42.966;1.608;2022-12-18T14:35:58;97640.72;;;14.52;62.90
52361;BME280;38294;42.966;1.608;2022-12-18T14:38:27;97646.19;;;14.23;62.91
52361;BME280;38294;42.966;1.608;2022-12-18T14:41:13;97649.84;;;14.56;62.89
52361;BME280;38294;42.966;1.608;2022-12-18T14:43:41;97652.97;;;14.02;64.71
52361;BME280;38294;42.966;1.608;2022-12-18T14:46:36;97671.09;;;14.03;64.28
52361;BME280;38294;42.966;1.608;2022-12-18T14:49:34;97673.19;;;13.38;67.67
52361;BME280;38294;42.966;1.608;2022-12-18T14:52:06;97677.50;;;13.17;68.77
52361;BME280;38294;42.966;1.608;2022-12-18T14:54:46;97670.28;;;13.31;68.09
52361;BME280;38294;42.966;1.608;2022-12-18T14:59:49;97678.97;;;12.53;71.62
52361;BME280;38294;42.966;1.608;2022-12-18T15:02:25;97678.75;;;12.42;72.38
52361;BME280;38294;42.966;1.608;2022-12-18T15:05:03;97689.31;;;12.59;72.12
52361;BME280;38294;42.966;1.608;2022-12-18T15:07:43;97686.13;;;12.77;71.82
52361;BME280;38294;42.966;1.608;2022-12-18T15:10:20;97687.06;;;12.46;72.73
52361;BME280;38294;42.966;1.608;2022-12-18T15:13:06;97691.75;;;12.45;72.98
52361;BME280;38294;42.966;1.608;2022-12-18T15:23:36;97709.69;;;12.04;74.00
52361;BME280;38294;42.966;1.608;2022-12-18T15:26:07;97712.50;;;11.92;74.82
52361;BME280;38294;42.966;1.608;2022-12-18T15:28:43;97710.13;;;11.59;75.35
52361;BME280;38294;42.966;1.608;2022-12-18T15:33:38;97721.03;;;11.72;75.27
52361;BME280;38294;42.966;1.608;2022-12-18T15:36:12;97719.97;;;11.76;75.38
52361;BME280;38294;42.966;1.608;2022-12-18T15:38:38;97724.59;;;11.44;76.06
52361;BME280;38294;42.966;1.608;2022-12-18T15:41:04;97725.06;;;11.31;76.30
52361;BME280;38294;42.966;1.608;2022-12-18T15:43:30;97719.63;;;11.34;76.74
52361;BME280;38294;42.966;1.608;2022-12-18T15:46:23;97715.53;;;11.56;76.33
52361;BME280;38294;42.966;1.608;2022-12-18T15:48:58;97713.31;;;11.62;76.20
52361;BME280;38294;42.966;1.608;2022-12-18T15:51:29;97712.84;;;11.44;77.28
52361;BME280;38294;42.966;1.608;2022-12-18T15:53:58;97709.03;;;11.48;76.49
52361;BME280;38294;42.966;1.608;2022-12-18T15:56:25;97700.28;;;11.43;76.52
52361;BME280;38294;42.966;1.608;2022-12-18T15:59:16;97708.66;;;11.19;77.63
52361;BME280;38294;42.966;1.608;2022-12-18T16:01:45;97710.72;;;11.37;77.11
52361;BME280;38294;42.966;1.608;2022-12-18T16:04:13;97710.38;;;11.39;76.75
52361;BME280;38294;42.966;1.608;2022-12-18T16:06:39;97706.09;;;11.26;76.61
52361;BME280;38294;42.966;1.608;2022-12-18T16:09:05;97709.25;;;11.12;77.12
52361;BME280;38294;42.966;1.608;2022-12-18T16:11:32;97706.97;;;11.14;77.89
52361;BME280;38294;42.966;1.608;2022-12-18T16:16:39;97716.41;;;10.73;78.96
52361;BME280;38294;42.966;1.608;2022-12-18T16:19:05;97705.19;;;10.78;79.46
52361;BME280;38294;42.966;1.608;2022-12-18T16:21:30;97708.28;;;10.77;79.31
52361;BME280;38294;42.966;1.608;2022-12-18T16:23:56;97713.91;;;10.68;79.41
52361;BME280;38294;42.966;1.608;2022-12-18T16:26:21;97715.41;;;10.66;79.54
52361;BME280;38294;42.966;1.608;2022-12-18T16:28:47;97724.19;;;10.71;79.53
52361;BME280;38294;42.966;1.608;2022-12-18T16:31:12;97715.00;;;10.51;80.75
52361;BME280;38294;42.966;1.608;2022-12-18T16:33:38;97722.47;;;10.27;81.18
52361;BME280;38294;42.966;1.608;2022-12-18T16:36:04;97727.41;;;10.61;79.52
52361;BME280;38294;42.966;1.608;2022-12-18T16:38:29;97722.75;;;10.49;76.78
52361;BME280;38294;42.966;1.608;2022-12-18T16:40:55;97722.34;;;10.23;78.14
52361;BME280;38294;42.966;1.608;2022-12-18T16:43:39;97718.47;;;9.88;77.96
52361;BME280;38294;42.966;1.608;2022-12-18T16:46:04;97723.84;;;9.72;80.35
52361;BME280;38294;42.966;1.608;2022-12-18T16:48:30;97739.09;;;9.61;81.12
52361;BME280;38294;42.966;1.608;2022-12-18T16:51:03;97741.75;;;9.94;79.41
52361;BME280;38294;42.966;1.608;2022-12-18T16:53:30;97733.06;;;9.92;78.15
52361;BME280;38294;42.966;1.608;2022-12-18T16:55:56;97724.28;;;9.62;78.66
52361;BME280;38294;42.966;1.608;2022-12-18T16:58:22;97724.59;;;9.36;79.43
52361;BME280;38294;42.966;1.608;2022-12-18T17:00:48;97720.75;;;9.62;78.28
52361;BME280;38294;42.966;1.608;2022-12-18T17:03:13;97727.34;;;9.73;77.30
52361;BME280;38294;42.966;1.608;2022-12-18T17:05:39;97739.09;;;9.61;76.24
52361;BME280;38294;42.966;1.608;2022-12-18T17:08:05;97741.81;;;9.37;77.30
52361;BME280;38294;42.966;1.608;2022-12-18T17:10:30;97741.88;;;9.28;77.66
52361;BME280;38294;42.966;1.608;2022-12-18T17:12:56;97747.28;;;9.37;77.79
52361;BME280;38294;42.966;1.608;2022-12-18T17:15:21;97746.94;;;9.50;76.72
52361;BME280;38294;42.966;1.608;2022-12-18T17:17:47;97752.53;;;9.54;76.72
52361;BME280;38294;42.966;1.608;2022-12-18T17:20:13;97756.63;;;9.48;75.68
52361;BME280;38294;42.966;1.608;2022-12-18T17:22:38;97758.97;;;9.37;75.87
52361;BME280;38294;42.966;1.608;2022-12-18T17:25:04;97764.13;;;9.39;74.97
52361;BME280;38294;42.966;1.608;2022-12-18T17:27:29;97757.25;;;9.21;75.51
52361;BME280;38294;42.966;1.608;2022-12-18T17:29:55;97765.44;;;9.21;75.97
52361;BME280;38294;42.966;1.608;2022-12-18T17:32:21;97773.97;;;9.19;75.79
52361;BME280;38294;42.966;1.608;2022-12-18T17:34:46;97770.41;;;9.07;76.20
52361;BME280;38294;42.966;1.608;2022-12-18T17:37:12;97771.34;;;9.11;76.45
52361;BME280;38294;42.966;1.608;2022-12-18T17:39:38;97766.00;;;9.14;75.89
52361;BME280;38294;42.966;1.608;2022-12-18T17:42:04;97783.25;;;9.06;76.27
52361;BME280;38294;42.966;1.608;2022-12-18T17:44:30;97782.28;;;8.90;76.25
52361;BME280;38294;42.966;1.608;2022-12-18T17:46:55;97780.94;;;8.96;75.92
52361;BME280;38294;42.966;1.608;2022-12-18T17:49:21;97786.00;;;9.06;77.70
52361;BME280;38294;42.966;1.608;2022-12-18T17:51:46;97791.31;;;9.03;76.95
52361;BME280;38294;42.966;1.608;2022-12-18T17:54:12;97789.72;;;9.02;77.26
52361;BME280;38294;42.966;1.608;2022-12-18T17:56:38;97789.66;;;9.10;77.61
52361;BME280;38294;42.966;1.608;2022-12-18T17:59:04;97784.78;;;9.16;76.41
52361;BME280;38294;42.966;1.608;2022-12-18T18:01:29;97792.84;;;9.12;76.13
52361;BME280;38294;42.966;1.608;2022-12-18T18:03:55;97797.72;;;9.07;76.00
52361;BME280;38294;42.966;1.608;2022-12-18T18:06:21;97792.94;;;9.04;76.19
52361;BME280;38294;42.966;1.608;2022-12-18T18:08:48;97797.72;;;9.07;75.26
52361;BME280;38294;42.966;1.608;2022-12-18T18:11:16;97797.44;;;9.20;75.87
52361;BME280;38294;42.966;1.608;2022-12-18T18:14:01;97807.72;;;9.23;75.79
52361;BME280;38294;42.966;1.608;2022-12-18T18:16:34;97804.16;;;9.23;74.71
52361;BME280;38294;42.966;1.608;2022-12-18T18:19:03;97795.97;;;9.23;74.28
52361;BME280;38294;42.966;1.608;2022-12-18T18:21:30;97809.25;;;9.12;73.12
52361;BME280;38294;42.966;1.608;2022-12-18T18:23:59;97814.00;;;9.03;72.96
52361;BME280;38294;42.966;1.608;2022-12-18T18:26:25;97817.59;;;8.74;73.88
52361;BME280;38294;42.966;1.608;2022-12-18T18:28:53;97821.66;;;8.68;74.23
52361;BME280;38294;42.966;1.608;2022-12-18T18:31:19;97822.72;;;8.55;74.23
52361;BME280;38294;42.966;1.608;2022-12-18T18:33:44;97819.03;;;8.51;74.38
52361;BME280;38294;42.966;1.608;2022-12-18T18:36:10;97812.78;;;8.51;74.48
52361;BME280;38294;42.966;1.608;2022-12-18T18:38:36;97806.13;;;8.39;74.80
52361;BME280;38294;42.966;1.608;2022-12-18T18:41:03;97807.44;;;8.54;74.83
52361;BME280;38294;42.966;1.608;2022-12-18T18:43:29;97813.66;;;8.42;75.11